sensor_id;sensor_type;location;lat;lon;timestamp;temperature;humidity
35804;DHT22;21924;51.934;7.414;2023-03-05T00:02:40;3.60;99.90
35804;DHT22;21924;51.934;7.414;2023-03-05T00:05:25;3.60;99.90
35804;DHT22;21924;51.934;7.414;2023-03-05T00:08:09;3.60;99.90
35804;DHT22;21924;51.934;7.414;2023-03-05T00:11:02;3.50;99.90
35804;DHT22;21924;51.934;7.414;2023-03-05T00:13:46;3.50;99.90
35804;DHT22;21924;51.934;7.414;2023-03-05T00:16:32;3.50;99.90
35804;DHT22;21924;51.934;7.414;2023-03-05T00:19:16;3.50;99.90
35804;DHT22;21924;51.934;7.414;2023-03-05T00:22:00;3.50;99.90
35804;DHT22;21924;51.934;7.414;2023-03-05T00:24:44;3.50;99.90
35804;DHT22;21924;51.934;7.414;2023-03-05T00:27:28;3.50;99.90
35804;DHT22;21924;51.934;7.414;2023-03-05T00:30:13;3.50;99.90
35804;DHT22;21924;51.934;7.414;2023-03-05T00:32:58;3.50;99.90
35804;DHT22;21924;51.934;7.414;2023-03-05T00:35:44;3.50;99.90
35804;DHT22;21924;51.934;7.414;2023-03-05T00:38:29;3.50;99.90
35804;DHT22;21924;51.934;7.414;2023-03-05T00:41:13;3.50;99.90
35804;DHT22;21924;51.934;7.414;2023-03-05T00:43:57;3.50;99.90
35804;DHT22;21924;51.934;7.414;2023-03-05T00:46:42;3.50;99.90
35804;DHT22;21924;51.934;7.414;2023-03-05T00:49:26;3.50;99.90
35804;DHT22;21924;51.934;7.414;2023-03-05T00:52:10;3.50;99.90
35804;DHT22;21924;51.934;7.414;2023-03-05T00:54:54;3.40;99.90
35804;DHT22;21924;51.934;7.414;2023-03-05T00:57:39;3.40;99.90
35804;DHT22;21924;51.934;7.414;2023-03-05T01:00:23;3.40;99.90
35804;DHT22;21924;51.934;7.414;2023-03-05T01:03:07;3.50;99.90
35804;DHT22;21924;51.934;7.414;2023-03-05T01:05:51;3.40;99.90
35804;DHT22;21924;51.934;7.414;2023-03-05T01:08:36;3.40;99.90
35804;DHT22;21924;51.934;7.414;2023-03-05T01:11:21;3.40;99.90
35804;DHT22;21924;51.934;7.414;2023-03-05T01:14:05;3.40;99.90
35804;DHT22;21924;51.934;7.414;2023-03-05T01:16:49;3.50;99.90
35804;DHT22;21924;51.934;7.414;2023-03-05T01:19:33;3.50;99.90
35804;DHT22;21924;51.934;7.414;2023-03-05T01:22:18;3.40;99.90
35804;DHT22;21924;51.934;7.414;2023-03-05T01:25:03;3.40;99.90
35804;DHT22;21924;51.934;7.414;2023-03-05T01:27:47;3.40;99.90
35804;DHT22;21924;51.934;7.414;2023-03-05T01:30:32;3.50;99.90
35804;DHT22;21924;51.934;7.414;2023-03-05T01:33:16;3.40;99.90
35804;DHT22;21924;51.934;7.414;2023-03-05T01:36:00;3.40;99.90
35804;DHT22;21924;51.934;7.414;2023-03-05T01:38:46;3.40;99.90
35804;DHT22;21924;51.934;7.414;2023-03-05T01:41:30;3.40;99.90
35804;DHT22;21924;51.934;7.414;2023-03-05T01:44:25;3.40;99.90
35804;DHT22;21924;51.934;7.414;2023-03-05T01:47:09;3.40;99.90
35804;DHT22;21924;51.934;7.414;2023-03-05T01:49:54;3.40;99.90
35804;DHT22;21924;51.934;7.414;2023-03-05T01:52:41;3.40;99.90
35804;DHT22;21924;51.934;7.414;2023-03-05T01:55:28;3.50;99.90
35804;DHT22;21924;51.934;7.414;2023-03-05T01:58:13;3.50;99.90
35804;DHT22;21924;51.934;7.414;2023-03-05T02:00:57;3.50;99.90
35804;DHT22;21924;51.934;7.414;2023-03-05T02:03:41;3.50;99.90
35804;DHT22;21924;51.934;7.414;2023-03-05T02:06:26;3.40;99.90
35804;DHT22;21924;51.934;7.414;2023-03-05T02:09:11;3.30;99.90
35804;DHT22;21924;51.934;7.414;2023-03-05T02:11:56;3.30;99.90
35804;DHT22;21924;51.934;7.414;2023-03-05T02:14:42;3.30;99.90
35804;DHT22;21924;51.934;7.414;2023-03-05T02:17:28;3.30;99.90
35804;DHT22;21924;51.934;7.414;2023-03-05T02:20:20;3.30;99.90
35804;DHT22;21924;51.934;7.414;2023-03-05T02:23:04;3.30;99.90
35804;DHT22;21924;51.934;7.414;2023-03-05T02:25:49;3.30;99.90
35804;DHT22;21924;51.934;7.414;2023-03-05T02:28:43;3.30;99.90
35804;DHT22;21924;51.934;7.414;2023-03-05T02:31:28;3.30;99.90
35804;DHT22;21924;51.934;7.414;2023-03-05T02:34:14;3.30;99.90
35804;DHT22;21924;51.934;7.414;2023-03-05T02:36:58;3.30;99.90
35804;DHT22;21924;51.934;7.414;2023-03-05T02:39:42;3.30;99.90
35804;DHT22;21924;51.934;7.414;2023-03-05T02:42:27;3.30;99.90
35804;DHT22;21924;51.934;7.414;2023-03-05T02:45:12;3.30;99.90
35804;DHT22;21924;51.934;7.414;2023-03-05T02:47:56;3.20;99.90
35804;DHT22;21924;51.934;7.414;2023-03-05T02:50:41;3.20;99.90
35804;DHT22;21924;51.934;7.414;2023-03-05T02:53:25;3.20;99.90
35804;DHT22;21924;51.934;7.414;2023-03-05T02:56:10;3.30;99.90
35804;DHT22;21924;51.934;7.414;2023-03-05T02:58:54;3.30;99.90
35804;DHT22;21924;51.934;7.414;2023-03-05T03:01:39;3.30;99.90
35804;DHT22;21924;51.934;7.414;2023-03-05T03:04:23;3.30;99.90
35804;DHT22;21924;51.934;7.414;2023-03-05T03:07:07;3.30;99.90
35804;DHT22;21924;51.934;7.414;2023-03-05T03:09:51;3.30;99.90
35804;DHT22;21924;51.934;7.414;2023-03-05T03:12:37;3.30;99.90
35804;DHT22;21924;51.934;7.414;2023-03-05T03:15:22;3.40;99.90
35804;DHT22;21924;51.934;7.414;2023-03-05T03:18:06;3.40;99.90
35804;DHT22;21924;51.934;7.414;2023-03-05T03:20:50;3.40;99.90
35804;DHT22;21924;51.934;7.414;2023-03-05T03:23:34;3.40;99.90
35804;DHT22;21924;51.934;7.414;2023-03-05T03:26:19;3.40;99.90
35804;DHT22;21924;51.934;7.414;2023-03-05T03:29:03;3.40;99.90
35804;DHT22;21924;51.934;7.414;2023-03-05T03:31:48;3.40;99.90
35804;DHT22;21924;51.934;7.414;2023-03-05T03:34:32;3.30;99.90
35804;DHT22;21924;51.934;7.414;2023-03-05T03:37:16;3.40;99.90
35804;DHT22;21924;51.934;7.414;2023-03-05T03:40:01;3.40;99.90
35804;DHT22;21924;51.934;7.414;2023-03-05T03:42:45;3.40;99.90
35804;DHT22;21924;51.934;7.414;2023-03-05T03:45:29;3.40;99.90
35804;DHT22;21924;51.934;7.414;2023-03-05T03:48:14;3.40;99.90
35804;DHT22;21924;51.934;7.414;2023-03-05T03:50:58;3.40;99.90
35804;DHT22;21924;51.934;7.414;2023-03-05T03:53:42;3.30;99.90
35804;DHT22;21924;51.934;7.414;2023-03-05T03:56:26;3.30;99.90
35804;DHT22;21924;51.934;7.414;2023-03-05T03:59:11;3.30;99.90
35804;DHT22;21924;51.934;7.414;2023-03-05T04:01:55;3.30;99.90
35804;DHT22;21924;51.934;7.414;2023-03-05T04:04:40;3.30;99.90
35804;DHT22;21924;51.934;7.414;2023-03-05T04:07:24;3.30;99.90
35804;DHT22;21924;51.934;7.414;2023-03-05T04:10:09;3.30;99.90
35804;DHT22;21924;51.934;7.414;2023-03-05T04:12:54;3.30;99.90
35804;DHT22;21924;51.934;7.414;2023-03-05T04:15:38;3.20;99.90
35804;DHT22;21924;51.934;7.414;2023-03-05T04:18:23;3.20;99.90
35804;DHT22;21924;51.934;7.414;2023-03-05T04:21:07;3.20;99.90
35804;DHT22;21924;51.934;7.414;2023-03-05T04:23:52;3.20;99.90
35804;DHT22;21924;51.934;7.414;2023-03-05T04:26:36;3.10;99.90
35804;DHT22;21924;51.934;7.414;2023-03-05T04:29:21;3.10;99.90
35804;DHT22;21924;51.934;7.414;2023-03-05T04:32:05;3.10;99.90
35804;DHT22;21924;51.934;7.414;2023-03-05T04:34:50;3.10;99.90
35804;DHT22;21924;51.934;7.414;2023-03-05T04:37:34;3.00;99.90
35804;DHT22;21924;51.934;7.414;2023-03-05T04:40:18;3.00;99.90
35804;DHT22;21924;51.934;7.414;2023-03-05T04:43:03;3.00;99.90
35804;DHT22;21924;51.934;7.414;2023-03-05T04:45:47;3.00;99.90
35804;DHT22;21924;51.934;7.414;2023-03-05T04:48:31;3.00;99.90
35804;DHT22;21924;51.934;7.414;2023-03-05T04:51:16;3.00;99.90
35804;DHT22;21924;51.934;7.414;2023-03-05T04:54:00;3.00;99.90
35804;DHT22;21924;51.934;7.414;2023-03-05T04:56:44;3.00;99.90
35804;DHT22;21924;51.934;7.414;2023-03-05T04:59:29;3.00;99.90
35804;DHT22;21924;51.934;7.414;2023-03-05T05:02:13;3.10;99.90
35804;DHT22;21924;51.934;7.414;2023-03-05T05:04:57;3.10;99.90
35804;DHT22;21924;51.934;7.414;2023-03-05T05:07:41;3.00;99.90
35804;DHT22;21924;51.934;7.414;2023-03-05T05:10:26;3.00;99.90
35804;DHT22;21924;51.934;7.414;2023-03-05T05:13:10;3.00;99.90
35804;DHT22;21924;51.934;7.414;2023-03-05T05:15:55;3.10;99.90
35804;DHT22;21924;51.934;7.414;2023-03-05T05:18:39;3.00;99.90
35804;DHT22;21924;51.934;7.414;2023-03-05T05:21:23;3.10;99.90
35804;DHT22;21924;51.934;7.414;2023-03-05T05:24:08;3.10;99.90
35804;DHT22;21924;51.934;7.414;2023-03-05T05:26:54;3.10;99.90
35804;DHT22;21924;51.934;7.414;2023-03-05T05:29:38;3.10;99.90
35804;DHT22;21924;51.934;7.414;2023-03-05T05:32:23;3.10;99.90
35804;DHT22;21924;51.934;7.414;2023-03-05T05:35:08;3.10;99.90
35804;DHT22;21924;51.934;7.414;2023-03-05T05:37:53;3.10;99.90
35804;DHT22;21924;51.934;7.414;2023-03-05T05:40:37;3.10;99.90
35804;DHT22;21924;51.934;7.414;2023-03-05T05:43:22;3.10;99.90
35804;DHT22;21924;51.934;7.414;2023-03-05T05:46:10;3.10;99.90
35804;DHT22;21924;51.934;7.414;2023-03-05T05:48:55;3.10;99.90
35804;DHT22;21924;51.934;7.414;2023-03-05T05:51:39;3.10;99.90
35804;DHT22;21924;51.934;7.414;2023-03-05T05:54:23;3.10;99.90
35804;DHT22;21924;51.934;7.414;2023-03-05T05:57:08;3.10;99.90
35804;DHT22;21924;51.934;7.414;2023-03-05T05:59:52;3.10;99.90
35804;DHT22;21924;51.934;7.414;2023-03-05T06:02:38;3.10;99.90
35804;DHT22;21924;51.934;7.414;2023-03-05T06:05:22;3.10;99.90
35804;DHT22;21924;51.934;7.414;2023-03-05T06:08:07;3.10;99.90
35804;DHT22;21924;51.934;7.414;2023-03-05T06:10:54;3.10;99.90
35804;DHT22;21924;51.934;7.414;2023-03-05T06:13:38;3.10;99.90
35804;DHT22;21924;51.934;7.414;2023-03-05T06:16:23;3.10;99.90
35804;DHT22;21924;51.934;7.414;2023-03-05T06:19:13;3.10;99.90
35804;DHT22;21924;51.934;7.414;2023-03-05T06:21:58;3.00;99.90
35804;DHT22;21924;51.934;7.414;2023-03-05T06:24:42;3.00;99.90
35804;DHT22;21924;51.934;7.414;2023-03-05T06:27:26;3.00;99.90
35804;DHT22;21924;51.934;7.414;2023-03-05T06:30:11;3.00;99.90
35804;DHT22;21924;51.934;7.414;2023-03-05T06:32:55;3.10;99.90
35804;DHT22;21924;51.934;7.414;2023-03-05T06:35:40;3.10;99.90
35804;DHT22;21924;51.934;7.414;2023-03-05T06:38:24;3.10;99.90
35804;DHT22;21924;51.934;7.414;2023-03-05T06:41:12;3.10;99.90
35804;DHT22;21924;51.934;7.414;2023-03-05T06:43:59;3.10;99.90
35804;DHT22;21924;51.934;7.414;2023-03-05T06:46:45;3.10;99.90
35804;DHT22;21924;51.934;7.414;2023-03-05T06:49:30;3.20;99.90
35804;DHT22;21924;51.934;7.414;2023-03-05T06:52:14;3.20;99.90
35804;DHT22;21924;51.934;7.414;2023-03-05T06:54:58;3.20;99.90
35804;DHT22;21924;51.934;7.414;2023-03-05T06:57:43;3.20;99.90
35804;DHT22;21924;51.934;7.414;2023-03-05T07:00:27;3.20;99.90
35804;DHT22;21924;51.934;7.414;2023-03-05T07:03:13;3.20;99.90
35804;DHT22;21924;51.934;7.414;2023-03-05T07:05:57;3.20;99.90
35804;DHT22;21924;51.934;7.414;2023-03-05T07:08:42;3.20;99.90
35804;DHT22;21924;51.934;7.414;2023-03-05T07:11:28;3.20;99.90
35804;DHT22;21924;51.934;7.414;2023-03-05T07:14:12;3.10;99.90
35804;DHT22;21924;51.934;7.414;2023-03-05T07:16:56;3.10;99.90
35804;DHT22;21924;51.934;7.414;2023-03-05T07:19:41;3.20;99.90
35804;DHT22;21924;51.934;7.414;2023-03-05T07:22:26;3.20;99.90
35804;DHT22;21924;51.934;7.414;2023-03-05T07:25:11;3.20;99.90
35804;DHT22;21924;51.934;7.414;2023-03-05T07:27:56;3.20;99.90
35804;DHT22;21924;51.934;7.414;2023-03-05T07:30:40;3.20;99.90
35804;DHT22;21924;51.934;7.414;2023-03-05T07:33:25;3.20;99.90
35804;DHT22;21924;51.934;7.414;2023-03-05T07:36:11;3.30;99.90
35804;DHT22;21924;51.934;7.414;2023-03-05T07:38:55;3.30;99.90
35804;DHT22;21924;51.934;7.414;2023-03-05T07:41:39;3.30;99.90
35804;DHT22;21924;51.934;7.414;2023-03-05T07:44:24;3.20;99.90
35804;DHT22;21924;51.934;7.414;2023-03-05T07:47:08;3.20;99.90
35804;DHT22;21924;51.934;7.414;2023-03-05T07:49:52;3.30;99.90
35804;DHT22;21924;51.934;7.414;2023-03-05T07:52:36;3.30;99.90
35804;DHT22;21924;51.934;7.414;2023-03-05T07:55:21;3.40;99.90
35804;DHT22;21924;51.934;7.414;2023-03-05T07:58:05;3.40;99.90
35804;DHT22;21924;51.934;7.414;2023-03-05T08:00:50;3.50;99.90
35804;DHT22;21924;51.934;7.414;2023-03-05T08:03:34;3.50;99.90
35804;DHT22;21924;51.934;7.414;2023-03-05T08:06:18;3.50;99.90
35804;DHT22;21924;51.934;7.414;2023-03-05T08:09:02;3.50;99.90
35804;DHT22;21924;51.934;7.414;2023-03-05T08:11:47;3.50;99.90
35804;DHT22;21924;51.934;7.414;2023-03-05T08:14:31;3.60;99.90
35804;DHT22;21924;51.934;7.414;2023-03-05T08:17:15;3.60;99.90
35804;DHT22;21924;51.934;7.414;2023-03-05T08:20:00;3.60;99.90
35804;DHT22;21924;51.934;7.414;2023-03-05T08:22:48;3.70;99.90
35804;DHT22;21924;51.934;7.414;2023-03-05T08:25:32;3.70;99.90
35804;DHT22;21924;51.934;7.414;2023-03-05T08:28:17;3.80;99.90
35804;DHT22;21924;51.934;7.414;2023-03-05T08:31:07;3.80;99.90
35804;DHT22;21924;51.934;7.414;2023-03-05T08:33:54;3.90;99.90
35804;DHT22;21924;51.934;7.414;2023-03-05T08:36:38;4.00;99.90
35804;DHT22;21924;51.934;7.414;2023-03-05T08:39:22;4.00;99.90
35804;DHT22;21924;51.934;7.414;2023-03-05T08:42:06;4.10;99.90
35804;DHT22;21924;51.934;7.414;2023-03-05T08:44:50;4.20;99.90
35804;DHT22;21924;51.934;7.414;2023-03-05T08:47:35;4.20;99.90
35804;DHT22;21924;51.934;7.414;2023-03-05T08:50:19;4.20;99.90
35804;DHT22;21924;51.934;7.414;2023-03-05T08:53:05;4.30;99.90
35804;DHT22;21924;51.934;7.414;2023-03-05T08:55:54;4.30;99.90
35804;DHT22;21924;51.934;7.414;2023-03-05T08:58:39;4.40;99.90
35804;DHT22;21924;51.934;7.414;2023-03-05T09:01:23;4.30;99.90
35804;DHT22;21924;51.934;7.414;2023-03-05T09:04:08;4.20;99.90
35804;DHT22;21924;51.934;7.414;2023-03-05T09:06:52;4.20;99.90
35804;DHT22;21924;51.934;7.414;2023-03-05T09:09:37;4.20;99.90
35804;DHT22;21924;51.934;7.414;2023-03-05T09:12:21;4.10;99.90
35804;DHT22;21924;51.934;7.414;2023-03-05T09:15:07;4.10;99.90
35804;DHT22;21924;51.934;7.414;2023-03-05T09:17:51;4.20;99.90
35804;DHT22;21924;51.934;7.414;2023-03-05T09:20:35;4.20;99.90
35804;DHT22;21924;51.934;7.414;2023-03-05T09:23:21;4.30;99.90
35804;DHT22;21924;51.934;7.414;2023-03-05T09:26:07;4.20;99.90
35804;DHT22;21924;51.934;7.414;2023-03-05T09:28:52;4.30;99.90
35804;DHT22;21924;51.934;7.414;2023-03-05T09:31:36;4.30;99.90
35804;DHT22;21924;51.934;7.414;2023-03-05T09:34:20;4.40;99.90
35804;DHT22;21924;51.934;7.414;2023-03-05T09:37:05;4.40;99.90
35804;DHT22;21924;51.934;7.414;2023-03-05T09:39:49;4.50;99.90
35804;DHT22;21924;51.934;7.414;2023-03-05T09:46:05;4.70;99.90
35804;DHT22;21924;51.934;7.414;2023-03-05T09:49:03;4.80;99.90
35804;DHT22;21924;51.934;7.414;2023-03-05T09:51:54;5.00;99.90
35804;DHT22;21924;51.934;7.414;2023-03-05T09:54:42;5.10;99.90
35804;DHT22;21924;51.934;7.414;2023-03-05T09:57:45;5.20;99.90
35804;DHT22;21924;51.934;7.414;2023-03-05T10:00:40;5.50;99.90
35804;DHT22;21924;51.934;7.414;2023-03-05T10:03:58;5.60;99.90
35804;DHT22;21924;51.934;7.414;2023-03-05T10:07:07;5.70;99.90
35804;DHT22;21924;51.934;7.414;2023-03-05T10:09:59;5.50;99.90
35804;DHT22;21924;51.934;7.414;2023-03-05T10:12:45;5.30;99.90
35804;DHT22;21924;51.934;7.414;2023-03-05T10:15:49;5.20;99.90
35804;DHT22;21924;51.934;7.414;2023-03-05T10:18:45;5.10;99.90
35804;DHT22;21924;51.934;7.414;2023-03-05T10:28:15;4.60;99.90
35804;DHT22;21924;51.934;7.414;2023-03-05T10:37:11;3.20;99.90
35804;DHT22;21924;51.934;7.414;2023-03-05T10:40:24;3.20;99.90
35804;DHT22;21924;51.934;7.414;2023-03-05T10:43:35;3.30;99.90
35804;DHT22;21924;51.934;7.414;2023-03-05T10:46:31;3.50;99.90
35804;DHT22;21924;51.934;7.414;2023-03-05T10:49:31;3.70;99.90
35804;DHT22;21924;51.934;7.414;2023-03-05T10:52:39;4.00;99.90
35804;DHT22;21924;51.934;7.414;2023-03-05T10:55:29;3.90;99.90
35804;DHT22;21924;51.934;7.414;2023-03-05T10:58:15;4.10;99.90
35804;DHT22;21924;51.934;7.414;2023-03-05T11:01:02;4.10;99.90
35804;DHT22;21924;51.934;7.414;2023-03-05T11:03:51;4.40;99.90
35804;DHT22;21924;51.934;7.414;2023-03-05T11:06:38;4.70;99.90
35804;DHT22;21924;51.934;7.414;2023-03-05T11:09:30;5.00;99.90
35804;DHT22;21924;51.934;7.414;2023-03-05T11:12:17;5.20;99.90
35804;DHT22;21924;51.934;7.414;2023-03-05T11:18:14;5.50;99.90
35804;DHT22;21924;51.934;7.414;2023-03-05T11:26:57;6.00;99.90
35804;DHT22;21924;51.934;7.414;2023-03-05T11:29:47;6.20;99.90
35804;DHT22;21924;51.934;7.414;2023-03-05T11:32:31;6.10;99.90
35804;DHT22;21924;51.934;7.414;2023-03-05T11:35:31;6.20;99.90
35804;DHT22;21924;51.934;7.414;2023-03-05T11:38:19;6.40;99.90
35804;DHT22;21924;51.934;7.414;2023-03-05T11:41:03;6.50;99.90
35804;DHT22;21924;51.934;7.414;2023-03-05T11:43:48;6.70;99.90
35804;DHT22;21924;51.934;7.414;2023-03-05T11:46:40;7.00;99.90
35804;DHT22;21924;51.934;7.414;2023-03-05T11:49:27;7.00;99.90
35804;DHT22;21924;51.934;7.414;2023-03-05T11:52:22;7.20;99.90
35804;DHT22;21924;51.934;7.414;2023-03-05T11:55:25;7.30;99.90
35804;DHT22;21924;51.934;7.414;2023-03-05T11:58:38;7.40;99.90
35804;DHT22;21924;51.934;7.414;2023-03-05T12:01:27;7.30;99.90
35804;DHT22;21924;51.934;7.414;2023-03-05T12:04:12;7.30;99.90
35804;DHT22;21924;51.934;7.414;2023-03-05T12:06:58;7.20;99.90
35804;DHT22;21924;51.934;7.414;2023-03-05T12:09:51;7.30;99.90
35804;DHT22;21924;51.934;7.414;2023-03-05T12:21:31;7.30;99.90
35804;DHT22;21924;51.934;7.414;2023-03-05T12:27:10;7.30;99.90
35804;DHT22;21924;51.934;7.414;2023-03-05T12:29:54;7.20;99.90
35804;DHT22;21924;51.934;7.414;2023-03-05T12:32:51;7.40;99.90
35804;DHT22;21924;51.934;7.414;2023-03-05T12:35:38;7.50;99.90
35804;DHT22;21924;51.934;7.414;2023-03-05T12:38:30;7.40;99.90
35804;DHT22;21924;51.934;7.414;2023-03-05T12:44:15;7.40;99.90
35804;DHT22;21924;51.934;7.414;2023-03-05T12:47:14;7.40;99.90
35804;DHT22;21924;51.934;7.414;2023-03-05T12:50:00;7.40;99.90
35804;DHT22;21924;51.934;7.414;2023-03-05T12:52:45;7.50;99.90
35804;DHT22;21924;51.934;7.414;2023-03-05T12:55:33;7.60;99.90
35804;DHT22;21924;51.934;7.414;2023-03-05T12:58:42;7.60;99.90
35804;DHT22;21924;51.934;7.414;2023-03-05T13:02:00;7.70;99.90
35804;DHT22;21924;51.934;7.414;2023-03-05T13:04:46;7.60;99.90
35804;DHT22;21924;51.934;7.414;2023-03-05T13:07:31;7.50;99.90
35804;DHT22;21924;51.934;7.414;2023-03-05T13:10:28;7.40;99.90
35804;DHT22;21924;51.934;7.414;2023-03-05T13:13:13;7.40;99.90
35804;DHT22;21924;51.934;7.414;2023-03-05T13:15:59;7.50;99.90
35804;DHT22;21924;51.934;7.414;2023-03-05T13:18:46;7.50;99.90
35804;DHT22;21924;51.934;7.414;2023-03-05T13:21:32;7.60;99.90
35804;DHT22;21924;51.934;7.414;2023-03-05T13:24:19;7.60;99.90
35804;DHT22;21924;51.934;7.414;2023-03-05T13:27:27;7.70;99.90
35804;DHT22;21924;51.934;7.414;2023-03-05T13:30:26;7.60;99.90
35804;DHT22;21924;51.934;7.414;2023-03-05T13:33:27;7.70;99.90
35804;DHT22;21924;51.934;7.414;2023-03-05T13:36:13;7.70;99.90
35804;DHT22;21924;51.934;7.414;2023-03-05T13:38:59;7.70;99.90
35804;DHT22;21924;51.934;7.414;2023-03-05T13:41:57;7.80;99.90
35804;DHT22;21924;51.934;7.414;2023-03-05T13:44:41;7.80;99.90
35804;DHT22;21924;51.934;7.414;2023-03-05T13:47:28;8.00;99.90
35804;DHT22;21924;51.934;7.414;2023-03-05T13:50:28;7.90;99.90
35804;DHT22;21924;51.934;7.414;2023-03-05T13:53:23;8.10;99.90
35804;DHT22;21924;51.934;7.414;2023-03-05T13:56:13;8.10;99.90
35804;DHT22;21924;51.934;7.414;2023-03-05T13:58:57;8.10;99.90
35804;DHT22;21924;51.934;7.414;2023-03-05T14:01:44;7.90;99.90
35804;DHT22;21924;51.934;7.414;2023-03-05T14:04:36;7.90;99.90
35804;DHT22;21924;51.934;7.414;2023-03-05T14:10:37;8.00;99.90
35804;DHT22;21924;51.934;7.414;2023-03-05T14:13:25;7.90;99.90
35804;DHT22;21924;51.934;7.414;2023-03-05T14:16:23;8.00;99.90
35804;DHT22;21924;51.934;7.414;2023-03-05T14:19:31;8.20;99.90
35804;DHT22;21924;51.934;7.414;2023-03-05T14:22:40;8.30;99.90
35804;DHT22;21924;51.934;7.414;2023-03-05T14:25:28;8.30;99.90
35804;DHT22;21924;51.934;7.414;2023-03-05T14:31:00;8.20;99.90
35804;DHT22;21924;51.934;7.414;2023-03-05T14:33:44;8.20;99.90
35804;DHT22;21924;51.934;7.414;2023-03-05T14:36:29;8.10;99.90
35804;DHT22;21924;51.934;7.414;2023-03-05T14:42:48;8.00;99.90
35804;DHT22;21924;51.934;7.414;2023-03-05T14:45:36;7.90;99.90
35804;DHT22;21924;51.934;7.414;2023-03-05T14:48:21;7.90;99.90
35804;DHT22;21924;51.934;7.414;2023-03-05T14:51:06;7.80;99.90
35804;DHT22;21924;51.934;7.414;2023-03-05T14:53:50;7.80;99.90
35804;DHT22;21924;51.934;7.414;2023-03-05T14:56:34;7.70;99.90
35804;DHT22;21924;51.934;7.414;2023-03-05T14:59:19;7.50;99.90
35804;DHT22;21924;51.934;7.414;2023-03-05T15:02:17;7.40;99.90
35804;DHT22;21924;51.934;7.414;2023-03-05T15:05:01;7.30;99.90
35804;DHT22;21924;51.934;7.414;2023-03-05T15:07:47;7.20;99.90
35804;DHT22;21924;51.934;7.414;2023-03-05T15:10:31;7.10;99.90
35804;DHT22;21924;51.934;7.414;2023-03-05T15:13:16;7.00;99.90
35804;DHT22;21924;51.934;7.414;2023-03-05T15:16:01;7.00;99.90
35804;DHT22;21924;51.934;7.414;2023-03-05T15:18:45;6.90;99.90
35804;DHT22;21924;51.934;7.414;2023-03-05T15:21:30;6.90;99.90
35804;DHT22;21924;51.934;7.414;2023-03-05T15:24:14;6.90;99.90
35804;DHT22;21924;51.934;7.414;2023-03-05T15:26:58;6.90;99.90
35804;DHT22;21924;51.934;7.414;2023-03-05T15:29:43;7.00;99.90
35804;DHT22;21924;51.934;7.414;2023-03-05T15:32:27;6.90;99.90
35804;DHT22;21924;51.934;7.414;2023-03-05T15:35:13;7.00;99.90
35804;DHT22;21924;51.934;7.414;2023-03-05T15:37:57;6.90;99.90
35804;DHT22;21924;51.934;7.414;2023-03-05T15:40:42;6.80;99.90
35804;DHT22;21924;51.934;7.414;2023-03-05T15:43:27;6.80;99.90
35804;DHT22;21924;51.934;7.414;2023-03-05T15:46:11;6.70;99.90
35804;DHT22;21924;51.934;7.414;2023-03-05T15:48:55;6.60;99.90
35804;DHT22;21924;51.934;7.414;2023-03-05T15:51:39;6.50;99.90
35804;DHT22;21924;51.934;7.414;2023-03-05T15:54:24;6.30;99.90
35804;DHT22;21924;51.934;7.414;2023-03-05T15:57:09;6.20;99.90
35804;DHT22;21924;51.934;7.414;2023-03-05T15:59:54;6.20;99.90
35804;DHT22;21924;51.934;7.414;2023-03-05T16:02:38;6.10;99.90
35804;DHT22;21924;51.934;7.414;2023-03-05T16:05:23;6.10;99.90
35804;DHT22;21924;51.934;7.414;2023-03-05T16:08:07;6.00;99.90
35804;DHT22;21924;51.934;7.414;2023-03-05T16:10:52;6.00;99.90
35804;DHT22;21924;51.934;7.414;2023-03-05T16:13:36;5.90;99.90
35804;DHT22;21924;51.934;7.414;2023-03-05T16:16:20;5.90;99.90
35804;DHT22;21924;51.934;7.414;2023-03-05T16:19:08;5.90;99.90
35804;DHT22;21924;51.934;7.414;2023-03-05T16:21:53;5.80;99.90
35804;DHT22;21924;51.934;7.414;2023-03-05T16:24:38;5.70;99.90
35804;DHT22;21924;51.934;7.414;2023-03-05T16:27:22;5.70;99.90
35804;DHT22;21924;51.934;7.414;2023-03-05T16:30:07;5.60;99.90
35804;DHT22;21924;51.934;7.414;2023-03-05T16:32:51;5.60;99.90
35804;DHT22;21924;51.934;7.414;2023-03-05T16:35:36;5.60;99.90
35804;DHT22;21924;51.934;7.414;2023-03-05T16:38:20;5.60;99.90
35804;DHT22;21924;51.934;7.414;2023-03-05T16:41:04;5.60;99.90
35804;DHT22;21924;51.934;7.414;2023-03-05T16:43:49;5.50;99.90
35804;DHT22;21924;51.934;7.414;2023-03-05T16:46:34;5.50;99.90
35804;DHT22;21924;51.934;7.414;2023-03-05T16:49:19;5.50;99.90
35804;DHT22;21924;51.934;7.414;2023-03-05T16:52:05;5.50;99.90
35804;DHT22;21924;51.934;7.414;2023-03-05T16:54:49;5.50;99.90
35804;DHT22;21924;51.934;7.414;2023-03-05T16:57:33;5.50;99.90
35804;DHT22;21924;51.934;7.414;2023-03-05T17:00:18;5.40;99.90
35804;DHT22;21924;51.934;7.414;2023-03-05T17:03:04;5.30;99.90
35804;DHT22;21924;51.934;7.414;2023-03-05T17:05:50;5.40;99.90
35804;DHT22;21924;51.934;7.414;2023-03-05T17:08:34;5.30;99.90
35804;DHT22;21924;51.934;7.414;2023-03-05T17:11:18;5.30;99.90
35804;DHT22;21924;51.934;7.414;2023-03-05T17:14:03;5.20;99.90
35804;DHT22;21924;51.934;7.414;2023-03-05T17:16:47;5.20;99.90
35804;DHT22;21924;51.934;7.414;2023-03-05T17:19:31;5.10;99.90
35804;DHT22;21924;51.934;7.414;2023-03-05T17:22:16;5.10;99.90
35804;DHT22;21924;51.934;7.414;2023-03-05T17:25:00;5.10;99.90
35804;DHT22;21924;51.934;7.414;2023-03-05T17:27:44;5.00;99.90
35804;DHT22;21924;51.934;7.414;2023-03-05T17:30:28;5.00;99.90
35804;DHT22;21924;51.934;7.414;2023-03-05T17:33:16;5.00;99.90
35804;DHT22;21924;51.934;7.414;2023-03-05T17:36:01;5.00;99.90
35804;DHT22;21924;51.934;7.414;2023-03-05T17:38:46;5.00;99.90
35804;DHT22;21924;51.934;7.414;2023-03-05T17:41:33;5.00;99.90
35804;DHT22;21924;51.934;7.414;2023-03-05T17:44:17;4.90;99.90
35804;DHT22;21924;51.934;7.414;2023-03-05T17:47:01;4.90;99.90
35804;DHT22;21924;51.934;7.414;2023-03-05T17:49:46;4.80;99.90
35804;DHT22;21924;51.934;7.414;2023-03-05T17:52:30;4.90;99.90
35804;DHT22;21924;51.934;7.414;2023-03-05T17:55:15;4.80;99.90
35804;DHT22;21924;51.934;7.414;2023-03-05T17:58:00;4.80;99.90
35804;DHT22;21924;51.934;7.414;2023-03-05T18:00:45;4.80;99.90
35804;DHT22;21924;51.934;7.414;2023-03-05T18:03:29;4.80;99.90
35804;DHT22;21924;51.934;7.414;2023-03-05T18:06:13;4.80;99.90
35804;DHT22;21924;51.934;7.414;2023-03-05T18:08:57;4.80;99.90
35804;DHT22;21924;51.934;7.414;2023-03-05T18:11:42;4.80;99.90
35804;DHT22;21924;51.934;7.414;2023-03-05T18:14:26;4.70;99.90
35804;DHT22;21924;51.934;7.414;2023-03-05T18:17:10;4.70;99.90
35804;DHT22;21924;51.934;7.414;2023-03-05T18:19:54;4.60;99.90
35804;DHT22;21924;51.934;7.414;2023-03-05T18:22:39;4.60;99.90
35804;DHT22;21924;51.934;7.414;2023-03-05T18:25:24;4.60;99.90
35804;DHT22;21924;51.934;7.414;2023-03-05T18:28:14;4.60;99.90
35804;DHT22;21924;51.934;7.414;2023-03-05T18:31:00;4.50;99.90
35804;DHT22;21924;51.934;7.414;2023-03-05T18:33:44;4.60;99.90
35804;DHT22;21924;51.934;7.414;2023-03-05T18:36:28;4.60;99.90
35804;DHT22;21924;51.934;7.414;2023-03-05T18:39:13;4.50;99.90